createdAt,value
2022-12-23T00:02:48.468Z,9.37
2022-12-23T00:07:56.687Z,11.20
2022-12-23T00:13:22.748Z,10.37
2022-12-23T00:18:31.585Z,9.47
2022-12-23T00:23:40.729Z,9.00
2022-12-23T00:28:48.623Z,9.23
2022-12-23T00:33:57.105Z,10.63
2022-12-23T00:39:23.303Z,10.97
2022-12-23T00:44:31.680Z,14.00
2022-12-23T00:49:43.529Z,12.60
2022-12-23T00:54:52.474Z,11.67
2022-12-23T01:00:04.684Z,11.13
2022-12-23T01:05:23.903Z,12.83
2022-12-23T01:10:32.568Z,13.77
2022-12-23T01:15:42.936Z,11.90
2022-12-23T01:20:51.807Z,13.63
2022-12-23T01:26:02.959Z,13.77
2022-12-23T01:31:11.975Z,13.00
2022-12-23T01:36:22.489Z,12.90
2022-12-23T01:42:00.472Z,10.40
2022-12-23T01:47:12.360Z,10.83
2022-12-23T01:52:21.127Z,10.43
2022-12-23T01:57:30.462Z,10.10
2022-12-23T02:03:02.197Z,9.67
2022-12-23T02:08:29.510Z,9.70
2022-12-23T02:13:47.876Z,11.60
2022-12-23T02:19:01.664Z,10.83
2022-12-23T02:24:30.640Z,10.77
2022-12-23T02:30:06.950Z,8.27
2022-12-23T02:35:17.877Z,8.87
2022-12-23T02:40:53.279Z,8.87
2022-12-23T02:46:08.654Z,8.63
2022-12-23T02:51:17.015Z,8.83
2022-12-23T02:56:25.643Z,8.47
2022-12-23T03:01:34.357Z,9.47
2022-12-23T03:06:45.704Z,9.17
2022-12-23T03:12:21.373Z,8.87
2022-12-23T03:17:52.369Z,8.40
2022-12-23T03:23:08.823Z,8.27
2022-12-23T03:28:20.106Z,8.53
2022-12-23T03:33:31.787Z,10.20
2022-12-23T03:38:40.449Z,11.93
2022-12-23T03:43:53.736Z,16.17
2022-12-23T03:49:05.361Z,16.27
2022-12-23T03:54:15.454Z,18.40
2022-12-23T03:59:25.035Z,16.77
2022-12-23T04:04:42.147Z,16.70
2022-12-23T04:09:50.238Z,17.92
2022-12-23T04:14:58.741Z,17.73
2022-12-23T04:20:07.331Z,16.67
2022-12-23T04:25:15.541Z,15.37
2022-12-23T04:30:26.765Z,18.23
2022-12-23T04:35:32.556Z,15.90
2022-12-23T04:40:40.251Z,16.50
2022-12-23T04:45:53.029Z,15.17
2022-12-23T04:51:04.190Z,13.07
2022-12-23T04:56:12.081Z,12.83
2022-12-23T05:01:21.048Z,12.57
2022-12-23T05:06:28.735Z,13.27
2022-12-23T05:11:41.924Z,13.47
2022-12-23T05:16:45.803Z,13.10
2022-12-23T05:21:53.602Z,12.57
2022-12-23T05:27:01.295Z,14.10
2022-12-23T05:32:09.231Z,12.90
2022-12-23T05:37:17.040Z,12.87
2022-12-23T05:42:24.849Z,12.23
2022-12-23T05:47:32.530Z,11.90
2022-12-23T05:52:41.611Z,12.47
2022-12-23T05:57:49.271Z,11.47
2022-12-23T06:02:57.831Z,8.87
2022-12-23T06:08:06.212Z,10.10
2022-12-23T06:13:13.852Z,9.63
2022-12-23T06:18:21.568Z,10.47
2022-12-23T06:23:29.959Z,10.27
2022-12-23T06:28:38.312Z,10.50
2022-12-23T06:33:46.594Z,9.77
2022-12-23T06:38:54.626Z,9.53
2022-12-23T06:44:02.215Z,9.17
2022-12-23T06:49:13.455Z,7.63
2022-12-23T06:54:20.713Z,8.50
2022-12-23T06:59:29.729Z,8.50
2022-12-23T07:04:38.275Z,8.17
2022-12-23T07:09:45.889Z,10.80
2022-12-23T07:14:53.470Z,7.07
2022-12-23T07:20:01.113Z,7.13
2022-12-23T07:25:09.612Z,7.33
2022-12-23T07:30:17.546Z,6.93
2022-12-23T07:35:25.454Z,7.33
2022-12-23T07:40:33.881Z,7.47
2022-12-23T07:45:41.696Z,5.73
2022-12-23T07:50:49.319Z,5.17
2022-12-23T07:55:58.631Z,5.07
2022-12-23T08:01:08.708Z,5.13
2022-12-23T08:06:16.804Z,5.90
2022-12-23T08:11:24.674Z,7.90
2022-12-23T08:16:36.509Z,5.63
2022-12-23T08:21:41.932Z,5.97
2022-12-23T08:26:52.773Z,5.80
2022-12-23T08:32:01.571Z,6.30
2022-12-23T08:37:09.222Z,6.33
2022-12-23T08:42:18.009Z,6.17
2022-12-23T08:47:25.987Z,6.27
2022-12-23T08:52:33.616Z,6.00
2022-12-23T08:57:42.341Z,6.70
2022-12-23T09:02:50.215Z,7.17
2022-12-23T09:07:58.358Z,6.63
2022-12-23T09:13:06.000Z,5.93
2022-12-23T09:18:14.958Z,5.17
2022-12-23T09:23:22.718Z,5.63
2022-12-23T09:28:30.329Z,4.37
2022-12-23T09:33:38.672Z,4.33
2022-12-23T09:38:46.371Z,5.47
2022-12-23T09:44:13.524Z,5.87
2022-12-23T09:49:21.247Z,6.00
2022-12-23T09:54:30.338Z,6.63
2022-12-23T09:59:51.331Z,5.53
2022-12-23T10:05:05.390Z,4.27
2022-12-23T10:10:17.095Z,5.00
2022-12-23T10:15:30.726Z,4.67
2022-12-23T10:20:45.105Z,5.33
2022-12-23T10:25:53.659Z,5.03
2022-12-23T10:36:19.142Z,5.50
2022-12-23T10:41:40.828Z,5.60
2022-12-23T10:46:53.398Z,5.93
2022-12-23T10:52:07.359Z,5.77
2022-12-23T10:57:16.055Z,6.73
2022-12-23T11:02:35.701Z,6.93
2022-12-23T11:07:45.336Z,5.73
2022-12-23T11:12:54.473Z,5.80
2022-12-23T11:18:07.489Z,7.33
2022-12-23T11:23:32.619Z,7.40
2022-12-23T11:28:42.457Z,7.00
2022-12-23T11:34:02.759Z,4.93
2022-12-23T11:39:17.882Z,4.50
2022-12-23T11:44:31.223Z,5.40
2022-12-23T11:49:38.961Z,6.57
2022-12-23T11:54:55.827Z,6.37
2022-12-23T12:00:06.703Z,4.73
2022-12-23T12:05:41.052Z,5.33
2022-12-23T12:10:49.492Z,6.60
2022-12-23T12:16:03.647Z,5.70
2022-12-23T12:21:15.499Z,4.23
2022-12-23T12:26:36.777Z,4.17
2022-12-23T12:31:49.563Z,3.90
2022-12-23T12:36:59.569Z,3.77
2022-12-23T12:42:16.171Z,3.57
2022-12-23T12:47:53.291Z,3.67
2022-12-23T12:52:45.882Z,4.90
2022-12-23T12:57:53.530Z,3.77
2022-12-23T13:03:19.532Z,4.60
2022-12-23T13:08:46.497Z,6.30
2022-12-23T13:14:23.258Z,7.93
2022-12-23T13:19:42.974Z,6.33
2022-12-23T13:25:11.839Z,5.80
2022-12-23T13:30:20.653Z,5.17
2022-12-23T13:35:44.119Z,5.20
2022-12-23T13:41:13.051Z,3.67
2022-12-23T13:46:27.184Z,4.20
2022-12-23T13:51:54.759Z,3.70
2022-12-23T13:57:14.621Z,3.70
2022-12-23T14:02:40.909Z,5.20
2022-12-23T14:07:49.405Z,3.25
2022-12-23T14:13:08.474Z,3.70
2022-12-23T14:18:34.605Z,3.63
2022-12-23T14:23:51.082Z,3.67
2022-12-23T14:29:13.717Z,3.83
2022-12-23T14:34:24.696Z,4.40
2022-12-23T14:39:33.923Z,4.10
2022-12-23T14:44:45.928Z,3.77
2022-12-23T14:49:53.518Z,4.07
2022-12-23T14:55:30.438Z,4.53
2022-12-23T15:00:32.124Z,7.20
2022-12-23T15:05:40.874Z,6.83
2022-12-23T15:10:48.739Z,7.27
2022-12-23T15:16:01.782Z,7.23
2022-12-23T15:21:13.574Z,11.13
2022-12-23T15:26:21.751Z,12.23
2022-12-23T15:31:35.868Z,43.00
2022-12-23T15:36:44.857Z,26.77
2022-12-23T15:41:52.844Z,55.93
2022-12-23T15:47:00.718Z,36.33
2022-12-23T15:52:13.750Z,26.00
2022-12-23T15:57:20.416Z,15.73
2022-12-23T16:07:43.260Z,11.17
2022-12-23T16:12:52.362Z,15.30
2022-12-23T16:18:22.436Z,13.20
2022-12-23T16:23:30.965Z,13.07
2022-12-23T16:28:43.880Z,13.83
2022-12-23T16:33:53.119Z,13.10
2022-12-23T16:39:10.148Z,14.53
2022-12-23T16:44:20.611Z,12.50
2022-12-23T16:49:33.422Z,11.97
2022-12-23T16:54:40.820Z,15.47
2022-12-23T16:59:50.307Z,22.97
2022-12-23T17:04:58.556Z,20.33
2022-12-23T17:10:07.109Z,21.83
2022-12-23T17:15:26.527Z,18.83
2022-12-23T17:20:36.824Z,20.07
2022-12-23T17:25:46.763Z,23.53
2022-12-23T17:30:58.801Z,18.37
2022-12-23T17:36:06.777Z,18.10
2022-12-23T17:41:29.726Z,20.00
2022-12-23T17:46:39.277Z,24.27
2022-12-23T17:51:46.947Z,28.40
2022-12-23T17:56:57.019Z,22.63
2022-12-23T18:02:35.663Z,22.60
2022-12-23T18:07:43.523Z,27.40
2022-12-23T18:12:57.765Z,27.03
2022-12-23T18:18:23.900Z,27.87
2022-12-23T18:23:32.329Z,28.13
2022-12-23T18:28:40.232Z,27.27
2022-12-23T18:33:48.003Z,26.30
2022-12-23T18:38:57.319Z,23.47
2022-12-23T18:44:05.646Z,22.57
2022-12-23T18:49:13.415Z,18.77
2022-12-23T18:54:21.162Z,18.90
2022-12-23T18:59:30.367Z,19.00
2022-12-23T19:04:43.253Z,19.07
2022-12-23T19:09:51.045Z,18.77
2022-12-23T19:15:01.196Z,20.93
2022-12-23T19:20:12.187Z,25.60
2022-12-23T19:25:20.883Z,26.03
2022-12-23T19:30:28.695Z,24.47
2022-12-23T19:35:37.457Z,22.43
2022-12-23T19:40:45.310Z,24.10
2022-12-23T19:46:00.547Z,27.90
2022-12-23T19:51:11.976Z,28.40
2022-12-23T19:56:22.904Z,27.27
2022-12-23T20:01:31.555Z,28.63
2022-12-23T20:06:39.314Z,28.83
2022-12-23T20:11:49.260Z,28.00
2022-12-23T20:16:57.705Z,28.47
2022-12-23T20:22:06.107Z,27.87
2022-12-23T20:27:16.288Z,27.20
2022-12-23T20:32:24.959Z,25.80
2022-12-23T20:37:32.686Z,25.30
2022-12-23T20:42:42.459Z,29.83
2022-12-23T20:47:50.718Z,29.53
2022-12-23T20:52:58.498Z,29.17
2022-12-23T20:58:24.479Z,28.13
2022-12-23T21:03:32.053Z,28.80
2022-12-23T21:08:40.319Z,26.77
2022-12-23T21:13:51.748Z,27.47
2022-12-23T21:19:00.408Z,27.33
2022-12-23T21:24:08.342Z,29.53
2022-12-23T21:29:18.204Z,31.40
2022-12-23T21:34:25.955Z,34.13
2022-12-23T21:39:33.768Z,32.27
2022-12-23T21:44:42.565Z,31.97
2022-12-23T21:49:53.954Z,35.93
2022-12-23T21:55:01.727Z,34.43
2022-12-23T22:00:11.918Z,31.20
2022-12-23T22:05:24.824Z,31.23
2022-12-23T22:10:32.427Z,28.90
2022-12-23T22:15:43.605Z,28.27
2022-12-23T22:20:51.322Z,23.40
2022-12-23T22:25:59.493Z,29.30
2022-12-23T22:31:10.842Z,21.13
2022-12-23T22:36:18.797Z,17.93
2022-12-23T22:41:28.105Z,23.97
2022-12-23T22:46:36.011Z,27.87
2022-12-23T22:51:44.365Z,26.57
2022-12-23T22:56:55.206Z,24.97
2022-12-23T23:02:03.316Z,22.40
2022-12-23T23:07:11.366Z,21.37
2022-12-23T23:12:19.120Z,21.90
2022-12-23T23:17:28.442Z,23.87
2022-12-23T23:22:36.581Z,20.43
2022-12-23T23:27:44.341Z,18.73
2022-12-23T23:32:54.545Z,15.67
2022-12-23T23:38:02.428Z,17.07
2022-12-23T23:43:10.315Z,16.13
2022-12-23T23:48:18.163Z,16.47
2022-12-23T23:53:25.796Z,17.80
2022-12-23T23:58:34.467Z,16.70
